Time;durP1;ratioP1;P1;durP2;ratioP2;P2;SDS_P1;SDS_P2;PMS_P1;PMS_P2;Temp;Humidity;BMP_temperature;BMP_pressure;BME280_temperature;BME280_humidity;BME280_pressure;Samples;Min_cycle;Max_cycle;Signal;HPM_P1;HPM_P2
2023/09/20 00:01:23;;;;;;;3.57;2.20;;;16.00;74.20;;;;;;4990502;28;20196;-73
2023/09/20 00:03:49;;;;;;;3.20;2.07;;;16.10;74.20;;;;;;4988697;28;20199;-73
2023/09/20 00:06:17;;;;;;;3.80;2.47;;;16.10;73.90;;;;;;4985231;28;20838;-72
2023/09/20 00:08:43;;;;;;;4.43;2.30;;;16.00;74.20;;;;;;4988909;28;21000;-74
2023/09/20 00:11:15;;;;;;;4.27;2.20;;;15.90;74.60;;;;;;4990680;28;20525;-73
2023/09/20 00:13:43;;;;;;;4.57;2.20;;;15.90;74.80;;;;;;4987021;28;20495;-72
2023/09/20 00:16:10;;;;;;;6.93;2.70;;;15.80;74.90;;;;;;4988685;28;20468;-72
2023/09/20 00:18:36;;;;;;;3.90;2.40;;;15.80;75.20;;;;;;4987534;28;20420;-71
2023/09/20 00:21:02;;;;;;;7.70;2.37;;;15.70;75.50;;;;;;4954366;28;20448;-72
2023/09/20 00:23:28;;;;;;;5.20;2.30;;;15.60;75.80;;;;;;4989112;28;20466;-72
2023/09/20 00:25:54;;;;;;;6.47;2.40;;;15.60;76.10;;;;;;4985710;28;20198;-71
2023/09/20 00:28:19;;;;;;;3.37;2.63;;;15.60;76.20;;;;;;4990289;28;20477;-72
2023/09/20 00:30:45;;;;;;;12.53;2.80;;;15.50;76.40;;;;;;4979640;28;20226;-72
2023/09/20 00:33:11;;;;;;;12.50;2.87;;;15.50;76.40;;;;;;4989809;28;20221;-72
2023/09/20 00:35:39;;;;;;;3.90;2.40;;;15.50;76.50;;;;;;4984182;28;20249;-73
2023/09/20 00:38:05;;;;;;;5.50;2.03;;;15.50;76.40;;;;;;4985882;28;20770;-73
2023/09/20 00:40:33;;;;;;;3.20;2.30;;;15.50;76.50;;;;;;4990566;28;20453;-74
2023/09/20 00:42:58;;;;;;;2.90;2.07;;;15.50;76.50;;;;;;4989404;28;20206;-74
2023/09/20 00:45:24;;;;;;;5.83;2.80;;;15.50;76.50;;;;;;4983152;28;20458;-74
2023/09/20 00:47:57;;;;;;;4.90;3.23;;;15.50;76.50;;;;;;4989029;28;20206;-75
2023/09/20 00:50:27;;;;;;;6.43;2.60;;;15.50;76.70;;;;;;4991860;28;20512;-74
2023/09/20 00:52:54;;;;;;;3.57;2.00;;;15.50;76.70;;;;;;4993773;28;20479;-74
2023/09/20 00:55:29;;;;;;;4.03;2.43;;;15.50;76.50;;;;;;4986858;28;20533;-73
2023/09/20 00:58:12;;;;;;;4.83;2.53;;;15.50;76.50;;;;;;4994559;28;20420;-73
2023/09/20 01:00:40;;;;;;;4.97;2.40;;;15.60;76.50;;;;;;4991391;28;21162;-74
2023/09/20 01:03:06;;;;;;;3.40;2.50;;;15.50;76.50;;;;;;4995884;28;20423;-75
2023/09/20 01:05:37;;;;;;;7.93;2.03;;;15.50;76.50;;;;;;4990410;28;20497;-75
2023/09/20 01:08:03;;;;;;;6.83;3.77;;;15.50;76.70;;;;;;4997401;28;20423;-73
2023/09/20 01:10:31;;;;;;;5.23;2.60;;;15.50;76.70;;;;;;4973972;28;20418;-74
2023/09/20 01:13:04;;;;;;;5.53;2.50;;;15.40;76.80;;;;;;4989459;28;20873;-73
2023/09/20 01:15:34;;;;;;;5.27;2.27;;;15.40;77.10;;;;;;4987705;28;20470;-73
2023/09/20 01:18:01;;;;;;;4.47;2.83;;;15.30;77.40;;;;;;4989068;28;20512;-71
2023/09/20 01:20:28;;;;;;;3.13;2.60;;;15.30;77.60;;;;;;4993560;28;20885;-74
2023/09/20 01:22:59;;;;;;;2.63;2.20;;;15.30;77.60;;;;;;4992784;28;20427;-72
2023/09/20 01:25:26;;;;;;;5.37;2.37;;;15.40;77.30;;;;;;4984843;28;20454;-73
2023/09/20 01:27:56;;;;;;;5.27;2.13;;;15.40;77.10;;;;;;4993337;28;20794;-72
2023/09/20 01:30:25;;;;;;;5.47;2.40;;;15.40;77.00;;;;;;4993572;28;20449;-72
2023/09/20 01:32:58;;;;;;;5.17;2.40;;;15.40;77.10;;;;;;4992139;28;20523;-73
2023/09/20 01:35:26;;;;;;;4.27;2.30;;;15.40;76.80;;;;;;4987158;28;20451;-72
2023/09/20 01:37:52;;;;;;;5.73;2.53;;;15.40;76.80;;;;;;4993362;28;20424;-71
2023/09/20 01:40:23;;;;;;;4.30;2.63;;;15.50;76.70;;;;;;4993955;28;20426;-70
2023/09/20 01:42:50;;;;;;;12.80;2.53;;;15.50;76.70;;;;;;4974271;28;20841;-72
2023/09/20 01:45:20;;;;;;;4.50;2.20;;;15.50;76.80;;;;;;4990355;28;20468;-71
2023/09/20 01:47:49;;;;;;;4.73;3.00;;;15.50;76.80;;;;;;4977809;28;20431;-72
2023/09/20 01:50:21;;;;;;;4.50;2.10;;;15.40;77.00;;;;;;4993593;28;20468;-73
2023/09/20 01:52:54;;;;;;;3.37;2.27;;;15.30;77.40;;;;;;4996279;28;20416;-73
2023/09/20 01:55:21;;;;;;;3.10;2.13;;;15.30;77.60;;;;;;4991290;28;20457;-72
2023/09/20 01:57:59;;;;;;;8.33;2.20;;;15.30;77.70;;;;;;4993691;28;20762;-70
2023/09/20 02:00:33;;;;;;;5.50;2.40;;;15.20;77.70;;;;;;4993985;28;20430;-73
2023/09/20 02:03:00;;;;;;;3.40;2.10;;;15.30;77.80;;;;;;4994158;28;20438;-71
2023/09/20 02:05:27;;;;;;;4.40;2.47;;;15.20;77.70;;;;;;4992104;28;20462;-73
2023/09/20 02:07:58;;;;;;;3.83;2.37;;;15.20;77.70;;;;;;4994609;28;20595;-72
2023/09/20 02:10:24;;;;;;;4.20;2.13;;;15.20;78.10;;;;;;4989852;28;20480;-71
2023/09/20 02:12:51;;;;;;;3.90;2.33;;;15.20;78.00;;;;;;4993071;28;20477;-72
2023/09/20 02:15:21;;;;;;;4.50;2.53;;;15.20;78.00;;;;;;4987416;28;20581;-71
2023/09/20 02:17:47;;;;;;;6.43;2.63;;;15.10;78.00;;;;;;4993108;28;20430;-74
2023/09/20 02:20:25;;;;;;;6.90;2.47;;;15.10;78.10;;;;;;4993206;28;20944;-73
2023/09/20 02:22:53;;;;;;;4.23;2.03;;;15.20;78.00;;;;;;4986823;28;20504;-72
2023/09/20 02:25:24;;;;;;;3.83;2.33;;;15.20;78.00;;;;;;4982604;28;20458;-73
2023/09/20 02:27:52;;;;;;;5.10;2.30;;;15.20;78.00;;;;;;4989143;28;20435;-73
2023/09/20 02:30:28;;;;;;;5.40;2.40;;;15.30;77.80;;;;;;4988958;28;20779;-72
2023/09/20 02:32:57;;;;;;;4.40;2.50;;;15.30;77.70;;;;;;4987284;28;20429;-72
2023/09/20 02:35:24;;;;;;;2.87;2.10;;;15.30;77.70;;;;;;4985000;28;20474;-73
2023/09/20 02:37:50;;;;;;;4.47;2.63;;;15.40;77.10;;;;;;4987656;28;20798;-73
2023/09/20 02:40:19;;;;;;;4.57;2.40;;;15.50;76.80;;;;;;4992891;28;20427;-72
2023/09/20 02:42:51;;;;;;;3.03;2.10;;;15.40;77.00;;;;;;4989763;28;20789;-71
2023/09/20 02:45:17;;;;;;;4.10;2.30;;;15.40;77.10;;;;;;4987160;28;20467;-75
2023/09/20 02:47:43;;;;;;;3.17;2.23;;;15.40;77.10;;;;;;4988811;28;20430;-73
2023/09/20 02:50:12;;;;;;;3.97;2.60;;;15.40;77.10;;;;;;4977816;28;20447;-73
2023/09/20 02:52:41;;;;;;;3.90;2.40;;;15.40;77.00;;;;;;4994436;28;20542;-73
2023/09/20 02:55:08;;;;;;;3.13;2.20;;;15.30;77.40;;;;;;4989672;28;20489;-72
2023/09/20 02:57:37;;;;;;;9.37;2.97;;;15.20;77.60;;;;;;4991778;28;20424;-71
2023/09/20 03:00:14;;;;;;;4.43;2.33;;;15.10;78.00;;;;;;4992509;28;20570;-74
2023/09/20 03:02:45;;;;;;;3.70;1.97;;;15.10;77.80;;;;;;4974475;28;20503;-73
2023/09/20 03:05:16;;;;;;;4.00;2.40;;;15.20;78.00;;;;;;4988302;28;20459;-73
2023/09/20 03:07:46;;;;;;;3.83;2.10;;;15.10;77.80;;;;;;4991368;28;20474;-75
2023/09/20 03:10:13;;;;;;;3.80;2.10;;;15.10;78.10;;;;;;4986359;28;20416;-72
2023/09/20 03:12:44;;;;;;;3.90;2.40;;;15.10;78.00;;;;;;4991830;28;20412;-74
2023/09/20 03:15:11;;;;;;;4.50;2.70;;;15.10;78.00;;;;;;4986474;28;21002;-74
2023/09/20 03:17:39;;;;;;;2.90;2.10;;;15.20;78.00;;;;;;4977631;28;21183;-72
2023/09/20 03:20:24;;;;;;;4.87;2.07;;;15.10;78.10;;;;;;4990991;28;20527;-72
2023/09/20 03:22:55;;;;;;;3.43;2.30;;;15.20;78.00;;;;;;4991762;28;20418;-73
2023/09/20 03:25:22;;;;;;;6.90;2.27;;;15.10;78.10;;;;;;4983658;28;20550;-74
2023/09/20 03:27:48;;;;;;;9.30;2.83;;;15.10;78.30;;;;;;4989402;28;20423;-72
2023/09/20 03:30:16;;;;;;;3.60;2.00;;;15.00;78.60;;;;;;4989619;28;20432;-73
2023/09/20 03:32:44;;;;;;;4.87;2.90;;;15.00;78.60;;;;;;4991726;28;20447;-72
2023/09/20 03:35:12;;;;;;;4.10;2.60;;;15.00;78.70;;;;;;4986361;28;20986;-72
2023/09/20 03:37:41;;;;;;;4.30;2.50;;;14.90;78.90;;;;;;4988820;28;20437;-73
2023/09/20 03:40:10;;;;;;;3.27;2.20;;;14.90;79.20;;;;;;4988162;28;21311;-71
2023/09/20 03:42:40;;;;;;;3.90;2.60;;;14.90;79.20;;;;;;4990946;28;20450;-71
2023/09/20 03:45:07;;;;;;;3.00;2.10;;;14.90;79.00;;;;;;4986356;28;20465;-71
2023/09/20 03:47:33;;;;;;;4.57;2.83;;;14.90;79.20;;;;;;4990099;28;20433;-71
2023/09/20 03:49:59;;;;;;;4.83;2.43;;;14.90;79.30;;;;;;4992576;28;20430;-72
2023/09/20 03:52:24;;;;;;;4.87;2.60;;;14.90;79.30;;;;;;4986341;28;20431;-74
2023/09/20 03:54:53;;;;;;;4.33;2.53;;;14.80;79.30;;;;;;4988720;28;20494;-71
2023/09/20 03:57:24;;;;;;;4.63;2.50;;;14.90;79.20;;;;;;4988395;28;20181;-72
2023/09/20 03:59:53;;;;;;;4.70;2.57;;;14.80;79.20;;;;;;4991439;28;20497;-71
2023/09/20 04:02:19;;;;;;;3.33;2.30;;;14.80;79.20;;;;;;4990136;28;20422;-71
2023/09/20 04:04:45;;;;;;;6.97;3.13;;;14.80;79.30;;;;;;4990487;28;20444;-70
2023/09/20 04:07:10;;;;;;;9.70;3.03;;;14.80;79.30;;;;;;4989708;28;20425;-72
2023/09/20 04:09:36;;;;;;;5.90;2.30;;;14.80;79.50;;;;;;4990796;28;20237;-73
2023/09/20 04:12:05;;;;;;;3.30;2.30;;;14.70;79.60;;;;;;4988031;28;20275;-70
2023/09/20 04:14:31;;;;;;;6.07;2.97;;;14.70;79.60;;;;;;4990342;28;20222;-73
2023/09/20 04:16:56;;;;;;;5.03;2.47;;;14.70;79.70;;;;;;4986928;28;20470;-73
2023/09/20 04:19:22;;;;;;;5.17;2.30;;;14.60;79.90;;;;;;4973007;28;20603;-71
2023/09/20 04:21:49;;;;;;;5.53;2.63;;;14.60;80.00;;;;;;4990630;28;20198;-72
2023/09/20 04:24:16;;;;;;;5.43;2.57;;;14.60;80.00;;;;;;4969291;28;20460;-71
2023/09/20 04:26:41;;;;;;;3.60;2.50;;;14.60;79.90;;;;;;4987532;28;20524;-70
2023/09/20 04:29:07;;;;;;;11.33;2.60;;;14.70;79.70;;;;;;4991402;28;21229;-72
2023/09/20 04:31:34;;;;;;;4.67;2.50;;;14.70;79.70;;;;;;4990829;28;20199;-73
2023/09/20 04:34:00;;;;;;;5.43;3.20;;;14.70;79.60;;;;;;4986987;28;20613;-74
2023/09/20 04:36:27;;;;;;;4.90;3.10;;;14.70;79.60;;;;;;4985892;28;20466;-75
2023/09/20 04:38:53;;;;;;;4.23;2.30;;;14.80;79.60;;;;;;4986286;28;20984;-74
2023/09/20 04:41:18;;;;;;;4.27;2.50;;;14.80;79.50;;;;;;4992887;28;20438;-71
2023/09/20 04:43:44;;;;;;;4.00;2.33;;;14.90;79.20;;;;;;4991862;28;20199;-73
2023/09/20 04:46:10;;;;;;;3.20;2.20;;;14.90;78.90;;;;;;4983921;28;20480;-71
2023/09/20 04:48:39;;;;;;;4.60;2.67;;;15.00;78.60;;;;;;4991029;28;20190;-76
2023/09/20 04:51:05;;;;;;;4.60;2.43;;;15.00;78.40;;;;;;4988950;28;20437;-75
2023/09/20 04:53:33;;;;;;;4.80;2.50;;;15.00;78.60;;;;;;4985339;28;20961;-75
2023/09/20 04:55:59;;;;;;;5.60;2.67;;;14.90;78.90;;;;;;4986564;28;20203;-74
2023/09/20 04:58:25;;;;;;;5.20;2.70;;;14.80;79.20;;;;;;4991080;28;20512;-75
2023/09/20 05:00:51;;;;;;;5.27;2.60;;;14.80;79.30;;;;;;4987306;28;20439;-73
2023/09/20 05:03:20;;;;;;;11.70;3.30;;;14.80;79.20;;;;;;4990150;28;20427;-74
2023/09/20 05:05:50;;;;;;;6.97;2.40;;;14.80;79.30;;;;;;4979552;28;20214;-75
2023/09/20 05:08:16;;;;;;;10.03;3.20;;;14.70;79.30;;;;;;4989425;28;20433;-74
2023/09/20 05:10:45;;;;;;;3.80;2.70;;;14.60;79.70;;;;;;4989698;28;20791;-75
2023/09/20 05:13:11;;;;;;;4.47;2.60;;;14.60;79.90;;;;;;4985501;28;20461;-73
2023/09/20 05:15:38;;;;;;;4.03;2.60;;;14.60;79.90;;;;;;4984015;28;20598;-73
2023/09/20 05:18:05;;;;;;;3.83;2.30;;;14.60;79.90;;;;;;4987025;28;20452;-72
2023/09/20 05:20:31;;;;;;;3.63;2.53;;;14.60;80.00;;;;;;4990508;28;20723;-72
2023/09/20 05:23:04;;;;;;;5.00;2.70;;;14.70;79.70;;;;;;4986935;28;20446;-72
2023/09/20 05:25:30;;;;;;;13.47;2.93;;;14.80;79.60;;;;;;4984273;28;21195;-72
2023/09/20 05:27:56;;;;;;;3.77;2.60;;;14.90;79.20;;;;;;4990332;28;20411;-72
2023/09/20 05:30:22;;;;;;;5.60;3.67;;;14.80;79.00;;;;;;4989484;28;20434;-75
2023/09/20 05:32:51;;;;;;;7.30;3.30;;;14.90;78.70;;;;;;4986332;28;20266;-74
2023/09/20 05:35:17;;;;;;;10.10;3.33;;;15.00;78.40;;;;;;4987854;28;20204;-72
2023/09/20 05:37:46;;;;;;;5.30;2.80;;;15.00;78.40;;;;;;4994804;28;20480;-74
2023/09/20 05:40:17;;;;;;;3.93;2.50;;;15.00;78.10;;;;;;4994947;28;20429;-72
2023/09/20 05:42:46;;;;;;;6.30;2.73;;;15.00;78.30;;;;;;4989641;28;20425;-72
2023/09/20 05:45:15;;;;;;;3.37;2.40;;;15.10;78.30;;;;;;4986814;28;20978;-72
2023/09/20 05:47:41;;;;;;;4.73;3.07;;;15.10;78.00;;;;;;4989577;28;20547;-71
2023/09/20 05:50:13;;;;;;;5.43;2.73;;;15.10;78.00;;;;;;4993699;28;20466;-73
2023/09/20 05:52:40;;;;;;;5.17;2.83;;;15.10;78.10;;;;;;4988917;28;20503;-71
2023/09/20 05:55:08;;;;;;;7.40;3.57;;;15.10;78.10;;;;;;4988665;28;20495;-72
2023/09/20 05:57:34;;;;;;;6.23;3.10;;;15.10;78.30;;;;;;4992019;28;20454;-72
2023/09/20 06:00:09;;;;;;;6.57;3.20;;;15.20;78.30;;;;;;4994077;28;21197;-74
2023/09/20 06:02:34;;;;;;;4.90;2.87;;;15.20;78.30;;;;;;4995547;28;20182;-71
2023/09/20 06:05:00;;;;;;;5.13;2.60;;;15.20;78.00;;;;;;4987501;28;20918;-72
2023/09/20 06:07:27;;;;;;;3.90;2.30;;;15.30;77.80;;;;;;4991285;28;20553;-73
2023/09/20 06:09:54;;;;;;;9.30;2.97;;;15.40;77.70;;;;;;4992975;28;20444;-72
2023/09/20 06:12:19;;;;;;;6.03;3.00;;;15.40;77.10;;;;;;4975224;28;20473;-72
2023/09/20 06:14:45;;;;;;;6.87;2.93;;;15.60;76.80;;;;;;4991426;28;20497;-70
2023/09/20 06:17:10;;;;;;;5.60;2.97;;;15.70;76.40;;;;;;4991245;28;20218;-72
2023/09/20 06:19:37;;;;;;;4.83;2.93;;;15.80;75.90;;;;;;4991725;28;20195;-73
2023/09/20 06:22:03;;;;;;;6.03;3.53;;;16.00;75.70;;;;;;4993132;28;20186;-70
2023/09/20 06:24:29;;;;;;;4.47;2.87;;;16.10;74.90;;;;;;4990068;28;20429;-74
2023/09/20 06:26:54;;;;;;;15.50;3.70;;;16.20;74.80;;;;;;4989226;28;20209;-74
2023/09/20 06:29:21;;;;;;;5.13;3.07;;;16.30;74.50;;;;;;4991485;28;20186;-73
2023/09/20 06:31:46;;;;;;;6.43;3.30;;;16.40;74.00;;;;;;4992463;28;20185;-73
2023/09/20 06:34:17;;;;;;;5.40;3.47;;;16.50;73.60;;;;;;4993038;28;20992;-74
2023/09/20 06:36:43;;;;;;;5.63;2.30;;;16.60;73.20;;;;;;4988201;28;20221;-72
2023/09/20 06:39:08;;;;;;;5.63;2.87;;;16.80;72.70;;;;;;4992681;28;20417;-72
2023/09/20 06:41:34;;;;;;;5.13;2.70;;;16.90;72.60;;;;;;4992674;28;20272;-74
2023/09/20 06:43:59;;;;;;;6.63;2.80;;;17.00;72.00;;;;;;4991621;28;20238;-73
2023/09/20 06:46:25;;;;;;;4.83;3.00;;;17.10;71.70;;;;;;4986785;28;20240;-74
2023/09/20 06:48:51;;;;;;;4.80;3.03;;;17.30;71.40;;;;;;4992248;28;20241;-72
2023/09/20 06:51:17;;;;;;;6.00;3.03;;;17.40;70.70;;;;;;4993015;28;20669;-73
2023/09/20 06:53:44;;;;;;;5.23;2.93;;;17.50;70.70;;;;;;4992563;28;20470;-73
2023/09/20 06:56:09;;;;;;;9.43;2.93;;;17.70;70.10;;;;;;4989403;28;20461;-73
2023/09/20 06:58:36;;;;;;;8.77;3.00;;;17.80;70.10;;;;;;4973294;28;20422;-72
2023/09/20 07:01:04;;;;;;;5.50;2.77;;;17.90;69.50;;;;;;4990540;28;20202;-74
2023/09/20 07:03:31;;;;;;;6.67;3.23;;;18.00;69.50;;;;;;4991894;28;20437;-73
2023/09/20 07:05:57;;;;;;;5.60;2.90;;;18.00;69.10;;;;;;4988106;28;20561;-72
2023/09/20 07:08:23;;;;;;;4.87;2.73;;;18.10;68.60;;;;;;4990350;28;20533;-73
2023/09/20 07:10:50;;;;;;;6.50;3.20;;;18.20;68.60;;;;;;4974700;28;20189;-73
2023/09/20 07:13:18;;;;;;;5.13;3.40;;;18.30;68.30;;;;;;4992002;28;20215;-73
2023/09/20 07:15:44;;;;;;;6.20;3.17;;;18.40;68.20;;;;;;4985170;28;20462;-73
2023/09/20 07:18:13;;;;;;;4.57;2.43;;;18.50;67.90;;;;;;4991911;28;20441;-72
2023/09/20 07:20:40;;;;;;;9.07;3.57;;;18.50;67.50;;;;;;4991938;28;20430;-74
2023/09/20 07:23:10;;;;;;;8.80;3.20;;;18.70;67.30;;;;;;4991648;28;20443;-73
2023/09/20 07:25:37;;;;;;;7.77;3.77;;;18.70;67.00;;;;;;4984277;28;20486;-72
2023/09/20 07:28:04;;;;;;;7.23;3.60;;;18.60;67.50;;;;;;4991535;28;20515;-72
2023/09/20 07:30:31;;;;;;;9.30;4.00;;;18.50;67.70;;;;;;4988918;28;20420;-71
2023/09/20 07:32:59;;;;;;;10.33;3.93;;;18.40;68.00;;;;;;4989953;28;20954;-72
2023/09/20 07:35:36;;;;;;;5.80;3.73;;;18.20;68.30;;;;;;4989365;28;20477;-72
2023/09/20 07:38:04;;;;;;;7.30;3.60;;;18.20;68.80;;;;;;4972199;28;20429;-74
2023/09/20 07:40:33;;;;;;;10.13;3.67;;;18.20;69.10;;;;;;4987935;28;20452;-72
2023/09/20 07:43:06;;;;;;;8.83;3.43;;;18.30;68.80;;;;;;4987667;28;20530;-73
2023/09/20 07:45:34;;;;;;;6.50;2.83;;;18.40;68.60;;;;;;4984867;28;20451;-72
2023/09/20 07:48:00;;;;;;;8.30;3.23;;;18.50;68.20;;;;;;4991102;28;20428;-73
2023/09/20 07:50:26;;;;;;;9.80;2.60;;;18.50;67.90;;;;;;4990592;28;20510;-73
2023/09/20 07:52:52;;;;;;;9.83;3.20;;;18.60;67.60;;;;;;4990558;28;20433;-73
2023/09/20 07:55:17;;;;;;;9.90;3.57;;;18.70;67.50;;;;;;4986436;28;20466;-72
2023/09/20 07:57:43;;;;;;;7.53;3.70;;;18.90;67.50;;;;;;4991951;28;20196;-74
2023/09/20 08:00:15;;;;;;;5.80;3.43;;;19.10;67.20;;;;;;4990861;28;20254;-73
2023/09/20 08:02:46;;;;;;;3.93;2.40;;;19.20;66.10;;;;;;4988715;28;20188;-72
2023/09/20 08:05:13;;;;;;;5.03;2.77;;;19.40;65.80;;;;;;4984320;28;20545;-72
2023/09/20 08:07:38;;;;;;;5.00;2.67;;;19.60;65.40;;;;;;4991303;28;21188;-74
2023/09/20 08:10:05;;;;;;;5.93;3.00;;;19.60;65.00;;;;;;4990774;28;20520;-72
2023/09/20 08:12:31;;;;;;;3.40;2.57;;;19.70;64.50;;;;;;4988686;28;20187;-74
2023/09/20 08:14:57;;;;;;;3.60;2.33;;;19.80;64.50;;;;;;4985258;28;20531;-72
2023/09/20 08:20:10;;;;;;;5.37;2.83;;;20.00;63.90;;;;;;4990271;28;20433;-73
2023/09/20 09:01:03;;;;;;;6.50;2.43;;;21.20;63.10;;;;;;4989809;28;20426;-74
2023/09/20 09:03:29;;;;;;;3.90;2.20;;;21.10;62.50;;;;;;4983321;28;20440;-73
2023/09/20 09:06:00;;;;;;;6.53;2.37;;;21.10;62.60;;;;;;4982579;28;20467;-74
2023/09/20 09:08:26;;;;;;;3.80;2.20;;;21.20;62.60;;;;;;4990632;28;20419;-71
2023/09/20 09:10:52;;;;;;;4.93;2.73;;;21.20;62.00;;;;;;4989955;28;20440;-73
2023/09/20 09:13:18;;;;;;;4.50;1.90;;;21.30;62.00;;;;;;4993380;28;20498;-71
2023/09/20 09:15:45;;;;;;;3.80;1.83;;;21.40;62.20;;;;;;4985229;28;20567;-73
2023/09/20 09:18:17;;;;;;;3.30;1.87;;;21.50;61.90;;;;;;4976137;28;20553;-72
2023/09/20 09:20:45;;;;;;;3.10;1.73;;;21.50;61.30;;;;;;4976620;28;20439;-72
2023/09/20 09:23:11;;;;;;;4.60;2.20;;;21.50;61.30;;;;;;4993090;28;20490;-73
2023/09/20 09:25:37;;;;;;;4.70;2.10;;;21.60;61.20;;;;;;4989297;28;21327;-72
2023/09/20 09:28:03;;;;;;;5.20;2.40;;;21.80;61.20;;;;;;4993262;28;20303;-73
2023/09/20 09:30:31;;;;;;;6.50;2.47;;;21.90;61.30;;;;;;4998695;28;20193;-72
2023/09/20 09:32:57;;;;;;;7.00;3.03;;;22.00;61.50;;;;;;4989518;28;20193;-72
2023/09/20 09:35:23;;;;;;;4.87;2.33;;;22.00;61.30;;;;;;4990136;28;20454;-73
2023/09/20 09:37:50;;;;;;;4.93;2.27;;;22.00;61.30;;;;;;4994025;28;20478;-73
2023/09/20 09:40:15;;;;;;;3.30;2.33;;;21.90;61.20;;;;;;4994434;28;20874;-73
2023/09/20 09:42:44;;;;;;;4.47;2.00;;;21.90;60.90;;;;;;4991164;28;20520;-72
2023/09/20 09:45:10;;;;;;;4.63;2.60;;;21.90;60.30;;;;;;4989602;28;20694;-73
2023/09/20 09:47:37;;;;;;;2.83;1.93;;;21.90;60.10;;;;;;4992379;28;20515;-72
2023/09/20 09:50:06;;;;;;;6.03;1.93;;;22.00;59.90;;;;;;4993019;28;20196;-73
2023/09/20 09:52:36;;;;;;;4.43;2.63;;;22.10;59.90;;;;;;4994327;28;20941;-71
2023/09/20 09:55:02;;;;;;;5.50;2.30;;;22.20;58.90;;;;;;4990701;28;20476;-72
2023/09/20 09:57:27;;;;;;;3.53;2.17;;;22.20;58.70;;;;;;4994828;28;21127;-73
2023/09/20 09:59:54;;;;;;;4.60;2.57;;;22.20;58.70;;;;;;4991497;28;20194;-72
2023/09/20 10:02:22;;;;;;;4.33;2.37;;;22.20;58.70;;;;;;4995088;28;20425;-72
2023/09/20 10:04:58;;;;;;;3.27;2.30;;;22.20;58.70;;;;;;4990045;28;20425;-72
2023/09/20 10:07:30;;;;;;;4.20;2.40;;;22.40;58.50;;;;;;4993435;28;20475;-71
2023/09/20 10:10:08;;;;;;;3.67;2.13;;;22.50;58.40;;;;;;4992945;28;20425;-73
2023/09/20 10:12:35;;;;;;;3.63;2.07;;;22.40;58.10;;;;;;4988149;28;20519;-73
2023/09/20 10:15:06;;;;;;;2.83;1.73;;;22.50;56.90;;;;;;4987040;28;20965;-73
2023/09/20 10:17:33;;;;;;;3.40;2.40;;;22.30;57.20;;;;;;4984133;28;20538;-72
2023/09/20 10:19:59;;;;;;;5.77;2.03;;;22.30;57.30;;;;;;4992682;28;20966;-71
2023/09/20 10:22:26;;;;;;;4.30;2.27;;;22.30;56.90;;;;;;4992046;28;20452;-72
2023/09/20 10:24:58;;;;;;;3.93;2.10;;;22.50;56.90;;;;;;4988461;28;20273;-71
2023/09/20 10:27:33;;;;;;;3.97;2.10;;;22.60;56.10;;;;;;4991320;28;20475;-72
2023/09/20 10:30:01;;;;;;;3.90;2.40;;;22.60;55.80;;;;;;4992898;28;20415;-73
2023/09/20 10:32:35;;;;;;;4.57;2.57;;;22.70;55.60;;;;;;4990983;28;20457;-73
2023/09/20 10:35:22;;;;;;;4.23;2.60;;;22.90;54.80;;;;;;4986052;28;20480;-72
2023/09/20 10:38:15;;;;;;;5.13;3.20;;;23.30;53.80;;;;;;4989971;28;20432;-72
2023/09/20 10:40:48;;;;;;;3.83;2.20;;;23.60;52.40;;;;;;4990175;28;20435;-72
2023/09/20 10:43:35;;;;;;;3.83;2.30;;;23.70;51.40;;;;;;4993894;28;20536;-73
2023/09/20 10:46:08;;;;;;;3.30;2.10;;;23.90;52.00;;;;;;4984179;28;20920;-72
2023/09/20 10:48:34;;;;;;;8.50;2.40;;;24.20;51.40;;;;;;4994568;28;20436;-72
2023/09/20 10:51:03;;;;;;;3.50;2.37;;;24.40;51.30;;;;;;4989421;28;20435;-72
2023/09/20 10:53:44;;;;;;;6.00;2.20;;;24.60;50.50;;;;;;4993134;28;20297;-74
2023/09/20 10:56:50;;;;;;;7.80;2.27;;;24.90;50.30;;;;;;4989934;28;20471;-72
2023/09/20 10:59:21;;;;;;;5.53;2.97;;;25.40;48.60;;;;;;4989982;28;20454;-74
2023/09/20 11:01:53;;;;;;;5.03;2.60;;;25.80;46.90;;;;;;4985270;28;20462;-72
2023/09/20 11:04:19;;;;;;;5.20;2.77;;;26.00;43.90;;;;;;4991105;28;20488;-72
2023/09/20 11:06:48;;;;;;;7.13;2.93;;;26.20;44.60;;;;;;4987128;28;20811;-72
2023/09/20 11:09:15;;;;;;;4.10;2.70;;;26.50;43.80;;;;;;4991457;28;20419;-73
2023/09/20 11:11:43;;;;;;;3.60;2.70;;;26.60;42.60;;;;;;4988031;28;20466;-72
2023/09/20 11:14:14;;;;;;;7.40;3.30;;;26.40;43.00;;;;;;4991354;28;20473;-73
2023/09/20 11:16:42;;;;;;;8.20;2.83;;;26.00;43.90;;;;;;4987337;28;20510;-71
2023/09/20 11:19:10;;;;;;;3.23;2.50;;;26.00;45.10;;;;;;4992598;28;20515;-74
2023/09/20 11:21:36;;;;;;;5.63;2.70;;;26.30;45.90;;;;;;4996021;28;20417;-72
2023/09/20 11:24:03;;;;;;;6.27;2.87;;;26.20;43.90;;;;;;4996453;28;20466;-72
2023/09/20 11:26:29;;;;;;;3.77;2.40;;;26.10;44.70;;;;;;4991466;28;20217;-71
2023/09/20 11:28:56;;;;;;;3.97;2.70;;;26.30;45.50;;;;;;4994427;28;20542;-73
2023/09/20 11:31:32;;;;;;;6.53;2.87;;;26.60;45.90;;;;;;4994248;28;20437;-73
2023/09/20 11:34:06;;;;;;;4.33;2.60;;;26.50;46.30;;;;;;4988371;28;20824;-73
2023/09/20 11:36:40;;;;;;;5.10;3.03;;;26.00;47.70;;;;;;4987803;28;20547;-72
2023/09/20 11:39:06;;;;;;;5.70;2.83;;;25.80;48.30;;;;;;4988447;28;20481;-73
2023/09/20 11:41:32;;;;;;;4.93;2.77;;;26.20;48.10;;;;;;4989594;28;20877;-76
2023/09/20 11:44:00;;;;;;;4.13;3.00;;;26.50;47.30;;;;;;4991992;28;20208;-72
2023/09/20 11:46:35;;;;;;;3.40;2.37;;;26.70;47.30;;;;;;4982421;28;20475;-73
2023/09/20 11:49:06;;;;;;;5.47;2.77;;;27.00;47.40;;;;;;4993914;28;20430;-72
2023/09/20 11:51:43;;;;;;;4.90;1.97;;;27.30;47.00;;;;;;4991475;28;20418;-71
2023/09/20 11:54:11;;;;;;;3.87;2.20;;;27.30;46.70;;;;;;4994863;28;20471;-72
2023/09/20 11:56:37;;;;;;;4.03;2.57;;;26.70;48.20;;;;;;4987523;28;20496;-71
2023/09/20 11:59:10;;;;;;;2.97;2.10;;;26.70;47.40;;;;;;4986476;28;21227;-75
2023/09/20 12:01:41;;;;;;;3.80;1.90;;;26.50;48.10;;;;;;4988379;28;20948;-73
2023/09/20 12:04:10;;;;;;;3.37;1.90;;;26.20;48.70;;;;;;4970446;28;20470;-72
2023/09/20 12:06:36;;;;;;;4.90;2.10;;;26.20;49.10;;;;;;4988015;28;20563;-73
2023/09/20 12:09:03;;;;;;;2.83;1.47;;;26.10;49.70;;;;;;4988723;28;20430;-74
2023/09/20 12:11:29;;;;;;;3.20;1.67;;;26.40;49.30;;;;;;4987208;28;20514;-71
2023/09/20 12:13:54;;;;;;;2.90;1.97;;;26.60;48.60;;;;;;4990215;28;20677;-71
2023/09/20 12:16:26;;;;;;;2.67;1.90;;;26.60;48.50;;;;;;4988063;28;20276;-73
2023/09/20 12:18:54;;;;;;;3.37;1.90;;;26.90;48.10;;;;;;4988186;28;20195;-73
2023/09/20 12:21:20;;;;;;;3.33;1.90;;;26.90;47.90;;;;;;4989836;28;20455;-72
2023/09/20 12:23:45;;;;;;;3.00;1.53;;;26.70;48.90;;;;;;4987858;28;20422;-74
2023/09/20 12:26:12;;;;;;;2.70;1.73;;;26.70;48.70;;;;;;4986172;28;20267;-72
2023/09/20 12:28:38;;;;;;;2.97;1.47;;;26.90;48.60;;;;;;4991584;28;20276;-73
2023/09/20 12:31:05;;;;;;;2.10;1.70;;;27.00;48.30;;;;;;4991148;28;20543;-73
2023/09/20 12:33:31;;;;;;;3.97;2.00;;;27.20;48.30;;;;;;4984408;28;20214;-73
2023/09/20 12:35:59;;;;;;;3.37;2.43;;;27.30;47.90;;;;;;4982630;28;20484;-74
2023/09/20 12:38:29;;;;;;;2.20;1.57;;;27.60;47.30;;;;;;4983485;28;20438;-73
2023/09/20 12:40:56;;;;;;;9.27;1.90;;;28.00;45.50;;;;;;4992401;28;20426;-73
2023/09/20 12:43:22;;;;;;;2.47;1.80;;;27.80;45.00;;;;;;4987957;28;20445;-72
2023/09/20 12:45:47;;;;;;;4.80;1.97;;;27.60;45.50;;;;;;4984907;28;20461;-74
2023/09/20 12:48:13;;;;;;;3.57;1.93;;;27.90;45.80;;;;;;4991866;28;20186;-74
2023/09/20 12:50:41;;;;;;;3.93;1.93;;;28.20;45.40;;;;;;4994956;28;20189;-71
2023/09/20 12:53:08;;;;;;;2.73;1.50;;;28.60;44.10;;;;;;4993257;28;20991;-73
2023/09/20 12:55:38;;;;;;;2.63;1.80;;;28.80;43.80;;;;;;4988237;28;20500;-73
2023/09/20 12:58:06;;;;;;;3.50;1.40;;;28.70;42.30;;;;;;4992952;28;20501;-72
2023/09/20 13:00:33;;;;;;;3.70;1.80;;;28.50;42.70;;;;;;4994325;28;20425;-72
2023/09/20 13:02:59;;;;;;;2.53;1.83;;;28.40;43.20;;;;;;4994307;28;20421;-74
2023/09/20 13:05:25;;;;;;;3.40;1.50;;;28.20;43.80;;;;;;4988899;28;20461;-73
2023/09/20 13:07:51;;;;;;;2.70;1.70;;;28.40;43.40;;;;;;4995125;28;20433;-71
2023/09/20 13:10:19;;;;;;;5.27;2.10;;;28.30;42.40;;;;;;4995894;28;20483;-73
2023/09/20 13:12:47;;;;;;;3.23;1.73;;;27.80;43.70;;;;;;4994787;28;20191;-74
2023/09/20 13:15:14;;;;;;;3.10;1.70;;;27.80;44.20;;;;;;4992225;28;20480;-74
2023/09/20 13:17:43;;;;;;;4.63;1.83;;;27.80;42.80;;;;;;4995351;28;20429;-71
2023/09/20 13:20:12;;;;;;;2.73;1.40;;;27.90;41.80;;;;;;4973461;28;20808;-73
2023/09/20 13:22:42;;;;;;;2.87;1.77;;;27.90;41.80;;;;;;5001002;28;20485;-70
2023/09/20 13:25:09;;;;;;;3.20;1.87;;;28.20;41.80;;;;;;4996404;28;20470;-71
2023/09/20 13:27:35;;;;;;;2.33;1.40;;;28.30;41.90;;;;;;4988063;28;20551;-73
2023/09/20 13:30:10;;;;;;;1.93;1.40;;;28.40;41.50;;;;;;4995040;28;20448;-72
2023/09/20 13:32:36;;;;;;;4.03;1.43;;;28.60;41.50;;;;;;4994621;28;20924;-72